sensor_id;sensor_type;location;lat;lon;timestamp;pressure;altitude;pressure_sealevel;temperature;humidity
55916;BME280;41826;53.246;-6.670;2023-09-19T00:01:06;99945.00;;;11.15;100.00
55916;BME280;41826;53.246;-6.670;2023-09-19T00:03:34;99950.06;;;11.16;100.00
55916;BME280;41826;53.246;-6.670;2023-09-19T00:06:03;99954.31;;;11.25;100.00
55916;BME280;41826;53.246;-6.670;2023-09-19T00:08:28;99952.06;;;11.14;100.00
55916;BME280;41826;53.246;-6.670;2023-09-19T00:10:54;99937.25;;;11.21;100.00
55916;BME280;41826;53.246;-6.670;2023-09-19T00:13:20;99937.09;;;11.15;100.00
55916;BME280;41826;53.246;-6.670;2023-09-19T00:15:47;99919.06;;;11.12;100.00
55916;BME280;41826;53.246;-6.670;2023-09-19T00:18:16;99921.34;;;11.15;100.00
55916;BME280;41826;53.246;-6.670;2023-09-19T00:20:43;99890.66;;;11.07;100.00
55916;BME280;41826;53.246;-6.670;2023-09-19T00:23:13;99877.66;;;11.14;100.00
55916;BME280;41826;53.246;-6.670;2023-09-19T00:25:38;99867.47;;;11.19;100.00
55916;BME280;41826;53.246;-6.670;2023-09-19T00:28:05;99866.34;;;11.13;100.00
55916;BME280;41826;53.246;-6.670;2023-09-19T00:30:32;99869.59;;;11.23;100.00
55916;BME280;41826;53.246;-6.670;2023-09-19T00:32:58;99853.00;;;11.23;100.00
55916;BME280;41826;53.246;-6.670;2023-09-19T00:35:23;99847.09;;;11.21;100.00
55916;BME280;41826;53.246;-6.670;2023-09-19T00:37:50;99840.22;;;11.20;100.00
55916;BME280;41826;53.246;-6.670;2023-09-19T00:40:15;99835.94;;;11.27;100.00
55916;BME280;41826;53.246;-6.670;2023-09-19T00:42:42;99823.44;;;11.29;100.00
55916;BME280;41826;53.246;-6.670;2023-09-19T00:45:09;99827.06;;;11.28;100.00
55916;BME280;41826;53.246;-6.670;2023-09-19T00:47:48;99818.16;;;11.37;100.00
55916;BME280;41826;53.246;-6.670;2023-09-19T00:50:17;99818.81;;;11.31;100.00
55916;BME280;41826;53.246;-6.670;2023-09-19T00:52:46;99814.78;;;11.20;100.00
55916;BME280;41826;53.246;-6.670;2023-09-19T00:55:12;99805.56;;;11.24;100.00
55916;BME280;41826;53.246;-6.670;2023-09-19T00:57:41;99795.06;;;11.24;100.00
55916;BME280;41826;53.246;-6.670;2023-09-19T01:00:08;99789.50;;;11.11;100.00
55916;BME280;41826;53.246;-6.670;2023-09-19T01:02:37;99779.16;;;11.18;100.00
55916;BME280;41826;53.246;-6.670;2023-09-19T01:05:03;99774.56;;;11.20;100.00
55916;BME280;41826;53.246;-6.670;2023-09-19T01:07:32;99761.41;;;11.20;100.00
55916;BME280;41826;53.246;-6.670;2023-09-19T01:10:03;99756.63;;;11.23;100.00
55916;BME280;41826;53.246;-6.670;2023-09-19T01:23:29;99737.59;;;11.21;100.00
55916;BME280;41826;53.246;-6.670;2023-09-19T01:26:17;99716.31;;;11.08;100.00
55916;BME280;41826;53.246;-6.670;2023-09-19T01:29:00;99705.75;;;11.16;100.00
55916;BME280;41826;53.246;-6.670;2023-09-19T01:31:28;99693.94;;;11.20;100.00
55916;BME280;41826;53.246;-6.670;2023-09-19T01:34:00;99698.22;;;11.13;100.00
55916;BME280;41826;53.246;-6.670;2023-09-19T01:36:34;99701.28;;;11.25;100.00
55916;BME280;41826;53.246;-6.670;2023-09-19T01:39:07;99688.25;;;11.32;100.00
55916;BME280;41826;53.246;-6.670;2023-09-19T01:44:09;99660.06;;;11.25;100.00
55916;BME280;41826;53.246;-6.670;2023-09-19T01:46:40;99652.25;;;11.17;100.00
55916;BME280;41826;53.246;-6.670;2023-09-19T01:54:18;99627.50;;;11.35;100.00
55916;BME280;41826;53.246;-6.670;2023-09-19T01:57:20;99621.09;;;11.37;100.00
55916;BME280;41826;53.246;-6.670;2023-09-19T01:59:54;99607.06;;;11.45;100.00
55916;BME280;41826;53.246;-6.670;2023-09-19T02:02:22;99617.88;;;11.50;100.00
55916;BME280;41826;53.246;-6.670;2023-09-19T02:04:49;99618.69;;;11.50;100.00
55916;BME280;41826;53.246;-6.670;2023-09-19T02:07:16;99620.59;;;11.57;100.00
55916;BME280;41826;53.246;-6.670;2023-09-19T02:09:41;99622.47;;;11.48;100.00
55916;BME280;41826;53.246;-6.670;2023-09-19T02:12:09;99611.16;;;11.47;100.00
55916;BME280;41826;53.246;-6.670;2023-09-19T02:14:34;99602.75;;;11.52;100.00
55916;BME280;41826;53.246;-6.670;2023-09-19T02:17:02;99604.53;;;11.52;100.00
55916;BME280;41826;53.246;-6.670;2023-09-19T02:19:28;99583.34;;;11.53;100.00
55916;BME280;41826;53.246;-6.670;2023-09-19T02:21:55;99580.84;;;11.60;100.00
55916;BME280;41826;53.246;-6.670;2023-09-19T02:24:20;99572.47;;;11.56;100.00
55916;BME280;41826;53.246;-6.670;2023-09-19T02:26:46;99565.75;;;11.54;100.00
55916;BME280;41826;53.246;-6.670;2023-09-19T02:29:12;99559.16;;;11.58;100.00
55916;BME280;41826;53.246;-6.670;2023-09-19T02:31:38;99548.72;;;11.64;100.00
55916;BME280;41826;53.246;-6.670;2023-09-19T02:34:04;99542.88;;;11.62;100.00
55916;BME280;41826;53.246;-6.670;2023-09-19T02:36:31;99539.22;;;11.63;100.00
55916;BME280;41826;53.246;-6.670;2023-09-19T02:38:57;99521.63;;;11.64;100.00
55916;BME280;41826;53.246;-6.670;2023-09-19T02:41:22;99515.47;;;11.71;100.00
55916;BME280;41826;53.246;-6.670;2023-09-19T02:43:48;99508.41;;;11.72;100.00
55916;BME280;41826;53.246;-6.670;2023-09-19T02:46:13;99505.25;;;11.77;100.00
55916;BME280;41826;53.246;-6.670;2023-09-19T02:48:39;99491.94;;;11.78;100.00
55916;BME280;41826;53.246;-6.670;2023-09-19T02:51:04;99474.59;;;11.84;100.00
55916;BME280;41826;53.246;-6.670;2023-09-19T02:53:30;99467.44;;;11.78;100.00
55916;BME280;41826;53.246;-6.670;2023-09-19T02:55:57;99456.38;;;11.82;100.00
55916;BME280;41826;53.246;-6.670;2023-09-19T02:58:24;99437.16;;;11.82;100.00
55916;BME280;41826;53.246;-6.670;2023-09-19T03:00:50;99427.75;;;11.87;100.00
55916;BME280;41826;53.246;-6.670;2023-09-19T03:03:17;99413.13;;;11.85;100.00
55916;BME280;41826;53.246;-6.670;2023-09-19T03:05:43;99407.59;;;11.95;100.00
55916;BME280;41826;53.246;-6.670;2023-09-19T03:08:13;99398.66;;;11.89;100.00
55916;BME280;41826;53.246;-6.670;2023-09-19T03:10:40;99393.28;;;11.97;100.00
55916;BME280;41826;53.246;-6.670;2023-09-19T03:13:05;99365.72;;;11.93;100.00
55916;BME280;41826;53.246;-6.670;2023-09-19T03:15:35;99353.81;;;11.97;100.00
55916;BME280;41826;53.246;-6.670;2023-09-19T03:18:04;99339.31;;;12.01;100.00
55916;BME280;41826;53.246;-6.670;2023-09-19T03:20:30;99323.78;;;12.06;100.00
55916;BME280;41826;53.246;-6.670;2023-09-19T03:22:55;99305.75;;;12.03;100.00
55916;BME280;41826;53.246;-6.670;2023-09-19T03:25:22;99299.81;;;12.16;100.00
55916;BME280;41826;53.246;-6.670;2023-09-19T03:27:47;99289.28;;;12.16;100.00
55916;BME280;41826;53.246;-6.670;2023-09-19T03:30:13;99282.38;;;12.15;100.00
55916;BME280;41826;53.246;-6.670;2023-09-19T03:32:48;99270.22;;;12.14;100.00
55916;BME280;41826;53.246;-6.670;2023-09-19T03:35:15;99253.31;;;12.23;100.00
55916;BME280;41826;53.246;-6.670;2023-09-19T03:37:41;99241.16;;;12.22;100.00
55916;BME280;41826;53.246;-6.670;2023-09-19T03:40:08;99233.09;;;12.24;100.00
55916;BME280;41826;53.246;-6.670;2023-09-19T03:42:38;99230.31;;;12.32;100.00
55916;BME280;41826;53.246;-6.670;2023-09-19T03:45:04;99223.66;;;12.36;100.00
55916;BME280;41826;53.246;-6.670;2023-09-19T03:47:30;99208.75;;;12.43;100.00
55916;BME280;41826;53.246;-6.670;2023-09-19T03:49:56;99205.72;;;12.46;100.00
55916;BME280;41826;53.246;-6.670;2023-09-19T03:52:21;99188.53;;;12.50;100.00
55916;BME280;41826;53.246;-6.670;2023-09-19T03:54:47;99187.31;;;12.53;100.00
55916;BME280;41826;53.246;-6.670;2023-09-19T03:57:12;99172.97;;;12.55;100.00
55916;BME280;41826;53.246;-6.670;2023-09-19T03:59:41;99173.97;;;12.54;100.00
55916;BME280;41826;53.246;-6.670;2023-09-19T04:02:07;99172.38;;;12.60;100.00
55916;BME280;41826;53.246;-6.670;2023-09-19T04:04:37;99151.53;;;12.58;100.00
55916;BME280;41826;53.246;-6.670;2023-09-19T04:07:02;99152.97;;;12.68;100.00
55916;BME280;41826;53.246;-6.670;2023-09-19T04:09:27;99149.72;;;12.66;100.00
55916;BME280;41826;53.246;-6.670;2023-09-19T04:11:53;99133.56;;;12.69;100.00
55916;BME280;41826;53.246;-6.670;2023-09-19T04:14:18;99126.25;;;12.71;100.00
55916;BME280;41826;53.246;-6.670;2023-09-19T04:16:44;99120.22;;;12.77;100.00
55916;BME280;41826;53.246;-6.670;2023-09-19T04:19:09;99111.31;;;12.78;100.00
55916;BME280;41826;53.246;-6.670;2023-09-19T04:21:34;99108.66;;;12.78;100.00
55916;BME280;41826;53.246;-6.670;2023-09-19T04:24:00;99095.53;;;12.85;100.00
55916;BME280;41826;53.246;-6.670;2023-09-19T04:26:25;99102.25;;;12.94;100.00
55916;BME280;41826;53.246;-6.670;2023-09-19T04:28:51;99100.22;;;12.89;100.00
55916;BME280;41826;53.246;-6.670;2023-09-19T04:31:16;99094.59;;;12.99;100.00
55916;BME280;41826;53.246;-6.670;2023-09-19T04:33:43;99098.63;;;13.08;100.00
55916;BME280;41826;53.246;-6.670;2023-09-19T04:36:09;99094.56;;;13.06;100.00
55916;BME280;41826;53.246;-6.670;2023-09-19T04:38:35;99082.06;;;13.14;100.00
55916;BME280;41826;53.246;-6.670;2023-09-19T04:41:00;99064.41;;;13.21;100.00
55916;BME280;41826;53.246;-6.670;2023-09-19T04:43:26;99064.63;;;13.20;100.00
55916;BME280;41826;53.246;-6.670;2023-09-19T04:45:52;99071.09;;;13.24;100.00
55916;BME280;41826;53.246;-6.670;2023-09-19T04:48:22;99067.09;;;13.35;100.00
55916;BME280;41826;53.246;-6.670;2023-09-19T04:50:49;99064.22;;;13.23;100.00
55916;BME280;41826;53.246;-6.670;2023-09-19T04:53:14;99069.53;;;13.30;100.00
55916;BME280;41826;53.246;-6.670;2023-09-19T04:55:39;99051.66;;;13.25;100.00
55916;BME280;41826;53.246;-6.670;2023-09-19T04:58:05;99073.63;;;13.52;100.00
55916;BME280;41826;53.246;-6.670;2023-09-19T05:00:30;99065.50;;;13.60;100.00
55916;BME280;41826;53.246;-6.670;2023-09-19T05:03:00;99063.25;;;13.64;100.00
55916;BME280;41826;53.246;-6.670;2023-09-19T05:05:26;99061.03;;;13.68;100.00
55916;BME280;41826;53.246;-6.670;2023-09-19T05:07:51;99052.69;;;13.64;100.00
55916;BME280;41826;53.246;-6.670;2023-09-19T05:10:18;99048.44;;;13.56;100.00
55916;BME280;41826;53.246;-6.670;2023-09-19T05:12:44;99054.13;;;13.73;100.00
55916;BME280;41826;53.246;-6.670;2023-09-19T05:15:12;99052.91;;;13.82;100.00
55916;BME280;41826;53.246;-6.670;2023-09-19T05:17:38;99054.09;;;13.86;100.00
55916;BME280;41826;53.246;-6.670;2023-09-19T05:20:04;99057.75;;;13.92;100.00
55916;BME280;41826;53.246;-6.670;2023-09-19T05:22:41;99050.47;;;13.81;100.00
55916;BME280;41826;53.246;-6.670;2023-09-19T05:25:07;99049.25;;;13.90;100.00
55916;BME280;41826;53.246;-6.670;2023-09-19T05:27:32;99058.56;;;13.93;100.00
55916;BME280;41826;53.246;-6.670;2023-09-19T05:29:59;99055.94;;;13.93;100.00
55916;BME280;41826;53.246;-6.670;2023-09-19T05:32:24;99059.97;;;14.02;100.00
55916;BME280;41826;53.246;-6.670;2023-09-19T05:34:49;99059.34;;;14.13;100.00
55916;BME280;41826;53.246;-6.670;2023-09-19T05:37:18;99043.31;;;14.01;100.00
55916;BME280;41826;53.246;-6.670;2023-09-19T05:39:44;99045.78;;;14.03;100.00
55916;BME280;41826;53.246;-6.670;2023-09-19T05:42:09;99045.94;;;14.15;100.00
55916;BME280;41826;53.246;-6.670;2023-09-19T05:44:35;99044.31;;;14.07;100.00
55916;BME280;41826;53.246;-6.670;2023-09-19T05:47:04;99044.69;;;14.24;100.00
55916;BME280;41826;53.246;-6.670;2023-09-19T05:49:29;99038.66;;;14.03;100.00
55916;BME280;41826;53.246;-6.670;2023-09-19T05:51:55;99043.50;;;14.13;100.00
55916;BME280;41826;53.246;-6.670;2023-09-19T05:54:24;99036.00;;;14.10;100.00
55916;BME280;41826;53.246;-6.670;2023-09-19T05:56:49;99049.16;;;14.23;100.00
55916;BME280;41826;53.246;-6.670;2023-09-19T05:59:19;99054.78;;;14.40;100.00
55916;BME280;41826;53.246;-6.670;2023-09-19T06:01:44;99051.16;;;14.35;100.00
55916;BME280;41826;53.246;-6.670;2023-09-19T06:04:10;99059.31;;;14.26;100.00
55916;BME280;41826;53.246;-6.670;2023-09-19T06:06:36;99051.75;;;14.37;100.00
55916;BME280;41826;53.246;-6.670;2023-09-19T06:09:04;99055.19;;;14.44;100.00
55916;BME280;41826;53.246;-6.670;2023-09-19T06:11:31;99059.66;;;14.43;100.00
55916;BME280;41826;53.246;-6.670;2023-09-19T06:13:59;99054.75;;;14.47;100.00
55916;BME280;41826;53.246;-6.670;2023-09-19T06:16:26;99048.25;;;14.49;100.00
55916;BME280;41826;53.246;-6.670;2023-09-19T06:18:51;99051.09;;;14.48;100.00
55916;BME280;41826;53.246;-6.670;2023-09-19T06:21:18;99063.72;;;14.46;100.00
55916;BME280;41826;53.246;-6.670;2023-09-19T06:23:43;99060.88;;;14.54;100.00
55916;BME280;41826;53.246;-6.670;2023-09-19T06:26:09;99056.56;;;14.66;100.00
55916;BME280;41826;53.246;-6.670;2023-09-19T06:28:34;99059.56;;;14.77;100.00
55916;BME280;41826;53.246;-6.670;2023-09-19T06:31:02;99054.44;;;14.82;100.00
55916;BME280;41826;53.246;-6.670;2023-09-19T06:33:27;99061.75;;;14.80;100.00
55916;BME280;41826;53.246;-6.670;2023-09-19T06:35:53;99062.59;;;14.73;100.00
55916;BME280;41826;53.246;-6.670;2023-09-19T06:38:24;99059.94;;;14.73;100.00
55916;BME280;41826;53.246;-6.670;2023-09-19T06:40:49;99070.13;;;14.70;100.00
55916;BME280;41826;53.246;-6.670;2023-09-19T06:43:15;99066.19;;;14.86;100.00
55916;BME280;41826;53.246;-6.670;2023-09-19T06:45:40;99071.53;;;14.72;100.00
55916;BME280;41826;53.246;-6.670;2023-09-19T06:48:06;99077.78;;;14.85;100.00
55916;BME280;41826;53.246;-6.670;2023-09-19T06:50:32;99080.25;;;14.80;100.00
55916;BME280;41826;53.246;-6.670;2023-09-19T06:52:59;99085.09;;;14.89;100.00
55916;BME280;41826;53.246;-6.670;2023-09-19T06:55:25;99080.00;;;14.88;100.00
55916;BME280;41826;53.246;-6.670;2023-09-19T06:57:53;99087.31;;;14.86;100.00
55916;BME280;41826;53.246;-6.670;2023-09-19T07:00:21;99085.81;;;15.03;100.00
55916;BME280;41826;53.246;-6.670;2023-09-19T07:03:02;99092.91;;;14.64;100.00
55916;BME280;41826;53.246;-6.670;2023-09-19T07:05:34;99098.84;;;14.98;100.00
55916;BME280;41826;53.246;-6.670;2023-09-19T07:08:02;99097.63;;;15.01;100.00
55916;BME280;41826;53.246;-6.670;2023-09-19T07:10:28;99103.94;;;15.00;100.00
55916;BME280;41826;53.246;-6.670;2023-09-19T07:13:04;99117.53;;;15.03;100.00
55916;BME280;41826;53.246;-6.670;2023-09-19T07:15:34;99115.06;;;15.08;100.00
55916;BME280;41826;53.246;-6.670;2023-09-19T07:18:05;99111.41;;;15.09;100.00
55916;BME280;41826;53.246;-6.670;2023-09-19T07:20:31;99120.53;;;15.13;100.00
55916;BME280;41826;53.246;-6.670;2023-09-19T07:22:58;99123.06;;;15.33;100.00
55916;BME280;41826;53.246;-6.670;2023-09-19T07:25:29;99124.28;;;15.31;100.00
55916;BME280;41826;53.246;-6.670;2023-09-19T07:27:56;99136.09;;;15.28;100.00
55916;BME280;41826;53.246;-6.670;2023-09-19T07:30:21;99135.03;;;15.36;100.00
55916;BME280;41826;53.246;-6.670;2023-09-19T07:32:47;99133.63;;;15.33;100.00
55916;BME280;41826;53.246;-6.670;2023-09-19T07:35:13;99139.81;;;15.21;100.00
55916;BME280;41826;53.246;-6.670;2023-09-19T07:37:40;99143.38;;;15.39;100.00
55916;BME280;41826;53.246;-6.670;2023-09-19T07:40:06;99144.59;;;15.37;100.00
55916;BME280;41826;53.246;-6.670;2023-09-19T07:42:35;99159.19;;;15.46;100.00
55916;BME280;41826;53.246;-6.670;2023-09-19T07:45:02;99145.75;;;15.48;100.00
55916;BME280;41826;53.246;-6.670;2023-09-19T07:47:28;99163.09;;;15.69;100.00
55916;BME280;41826;53.246;-6.670;2023-09-19T07:49:55;99151.59;;;15.56;100.00
55916;BME280;41826;53.246;-6.670;2023-09-19T07:52:20;99150.31;;;15.66;100.00
55916;BME280;41826;53.246;-6.670;2023-09-19T07:54:47;99164.53;;;15.71;100.00
55916;BME280;41826;53.246;-6.670;2023-09-19T07:57:15;99160.63;;;15.80;100.00
55916;BME280;41826;53.246;-6.670;2023-09-19T07:59:41;99159.38;;;15.83;100.00
55916;BME280;41826;53.246;-6.670;2023-09-19T08:02:07;99158.25;;;15.66;100.00
55916;BME280;41826;53.246;-6.670;2023-09-19T08:04:35;99160.56;;;15.55;100.00
55916;BME280;41826;53.246;-6.670;2023-09-19T08:07:00;99162.50;;;15.67;100.00
55916;BME280;41826;53.246;-6.670;2023-09-19T08:09:28;99165.56;;;15.70;100.00
55916;BME280;41826;53.246;-6.670;2023-09-19T08:11:58;99162.28;;;15.75;100.00
55916;BME280;41826;53.246;-6.670;2023-09-19T08:14:23;99163.97;;;15.63;100.00
55916;BME280;41826;53.246;-6.670;2023-09-19T08:16:50;99159.41;;;15.76;100.00
55916;BME280;41826;53.246;-6.670;2023-09-19T08:19:15;99160.47;;;15.69;100.00
55916;BME280;41826;53.246;-6.670;2023-09-19T08:21:41;99155.59;;;15.72;100.00
55916;BME280;41826;53.246;-6.670;2023-09-19T08:24:06;99156.56;;;15.78;100.00
55916;BME280;41826;53.246;-6.670;2023-09-19T08:26:32;99159.31;;;15.90;100.00
55916;BME280;41826;53.246;-6.670;2023-09-19T08:28:57;99159.22;;;16.03;100.00
55916;BME280;41826;53.246;-6.670;2023-09-19T08:31:23;99153.75;;;15.98;100.00
55916;BME280;41826;53.246;-6.670;2023-09-19T08:33:49;99149.47;;;15.97;100.00
55916;BME280;41826;53.246;-6.670;2023-09-19T08:36:16;99159.53;;;16.13;100.00
55916;BME280;41826;53.246;-6.670;2023-09-19T08:38:42;99149.31;;;16.17;100.00
55916;BME280;41826;53.246;-6.670;2023-09-19T08:41:07;99136.72;;;16.12;100.00
55916;BME280;41826;53.246;-6.670;2023-09-19T08:43:34;99151.00;;;16.11;100.00
55916;BME280;41826;53.246;-6.670;2023-09-19T08:48:34;99140.47;;;16.04;100.00
55916;BME280;41826;53.246;-6.670;2023-09-19T08:51:03;99136.72;;;16.12;100.00
55916;BME280;41826;53.246;-6.670;2023-09-19T08:53:51;99137.16;;;16.09;100.00
55916;BME280;41826;53.246;-6.670;2023-09-19T08:56:18;99141.97;;;16.19;100.00
55916;BME280;41826;53.246;-6.670;2023-09-19T08:59:03;99141.81;;;16.14;100.00
55916;BME280;41826;53.246;-6.670;2023-09-19T09:01:31;99142.47;;;16.09;100.00
55916;BME280;41826;53.246;-6.670;2023-09-19T09:03:58;99147.22;;;16.00;100.00
55916;BME280;41826;53.246;-6.670;2023-09-19T09:06:25;99131.44;;;16.12;100.00
55916;BME280;41826;53.246;-6.670;2023-09-19T09:08:51;99136.22;;;16.22;100.00
55916;BME280;41826;53.246;-6.670;2023-09-19T09:11:17;99146.06;;;16.15;100.00
55916;BME280;41826;53.246;-6.670;2023-09-19T09:13:44;99147.25;;;16.19;100.00
55916;BME280;41826;53.246;-6.670;2023-09-19T09:16:10;99133.56;;;16.03;100.00
55916;BME280;41826;53.246;-6.670;2023-09-19T09:18:36;99129.75;;;16.18;100.00
55916;BME280;41826;53.246;-6.670;2023-09-19T09:21:01;99127.47;;;16.21;100.00
55916;BME280;41826;53.246;-6.670;2023-09-19T09:23:29;99132.66;;;16.10;100.00
55916;BME280;41826;53.246;-6.670;2023-09-19T09:25:55;99131.53;;;16.24;100.00
55916;BME280;41826;53.246;-6.670;2023-09-19T09:28:29;99134.19;;;16.24;100.00
55916;BME280;41826;53.246;-6.670;2023-09-19T09:30:56;99138.06;;;16.21;100.00
55916;BME280;41826;53.246;-6.670;2023-09-19T09:33:23;99125.47;;;16.17;100.00
55916;BME280;41826;53.246;-6.670;2023-09-19T09:38:21;99128.88;;;16.24;100.00
55916;BME280;41826;53.246;-6.670;2023-09-19T09:40:51;99130.06;;;16.28;100.00
55916;BME280;41826;53.246;-6.670;2023-09-19T09:43:27;99123.59;;;16.42;100.00
55916;BME280;41826;53.246;-6.670;2023-09-19T09:46:20;99123.63;;;16.17;100.00
55916;BME280;41826;53.246;-6.670;2023-09-19T09:51:39;99115.78;;;16.47;100.00
55916;BME280;41826;53.246;-6.670;2023-09-19T09:54:15;99120.13;;;16.42;100.00
55916;BME280;41826;53.246;-6.670;2023-09-19T09:59:58;99120.88;;;16.49;100.00
55916;BME280;41826;53.246;-6.670;2023-09-19T10:02:28;99121.53;;;16.63;100.00
55916;BME280;41826;53.246;-6.670;2023-09-19T10:04:57;99122.03;;;16.53;100.00
55916;BME280;41826;53.246;-6.670;2023-09-19T10:07:43;99111.81;;;16.57;100.00
55916;BME280;41826;53.246;-6.670;2023-09-19T10:10:34;99120.78;;;16.56;100.00
55916;BME280;41826;53.246;-6.670;2023-09-19T10:13:12;99113.75;;;16.50;100.00
55916;BME280;41826;53.246;-6.670;2023-09-19T10:15:48;99129.03;;;16.66;100.00
55916;BME280;41826;53.246;-6.670;2023-09-19T10:18:23;99123.16;;;16.64;100.00
55916;BME280;41826;53.246;-6.670;2023-09-19T10:20:49;99126.09;;;16.74;100.00
55916;BME280;41826;53.246;-6.670;2023-09-19T10:23:18;99136.47;;;16.76;100.00
55916;BME280;41826;53.246;-6.670;2023-09-19T10:25:55;99123.22;;;16.76;100.00
55916;BME280;41826;53.246;-6.670;2023-09-19T10:28:23;99131.63;;;16.73;100.00
55916;BME280;41826;53.246;-6.670;2023-09-19T10:30:52;99140.13;;;16.81;100.00
55916;BME280;41826;53.246;-6.670;2023-09-19T10:33:20;99136.06;;;16.79;100.00
55916;BME280;41826;53.246;-6.670;2023-09-19T10:35:48;99144.97;;;16.84;100.00
55916;BME280;41826;53.246;-6.670;2023-09-19T10:38:17;99153.41;;;16.75;100.00
55916;BME280;41826;53.246;-6.670;2023-09-19T10:40:53;99144.19;;;16.77;100.00
55916;BME280;41826;53.246;-6.670;2023-09-19T10:43:20;99145.84;;;16.78;100.00
55916;BME280;41826;53.246;-6.670;2023-09-19T10:45:50;99149.16;;;16.74;100.00
55916;BME280;41826;53.246;-6.670;2023-09-19T10:48:17;99148.28;;;16.80;100.00
55916;BME280;41826;53.246;-6.670;2023-09-19T10:51:11;99140.31;;;16.80;100.00
55916;BME280;41826;53.246;-6.670;2023-09-19T10:54:01;99146.13;;;16.88;100.00
55916;BME280;41826;53.246;-6.670;2023-09-19T11:07:10;99138.59;;;17.04;100.00
55916;BME280;41826;53.246;-6.670;2023-09-19T11:09:53;99132.28;;;17.05;100.00
55916;BME280;41826;53.246;-6.670;2023-09-19T11:14:54;99147.41;;;17.16;100.00
55916;BME280;41826;53.246;-6.670;2023-09-19T11:30:49;99147.59;;;17.33;100.00
55916;BME280;41826;53.246;-6.670;2023-09-19T11:36:05;99166.09;;;17.21;100.00
55916;BME280;41826;53.246;-6.670;2023-09-19T11:49:17;99168.53;;;17.23;100.00
55916;BME280;41826;53.246;-6.670;2023-09-19T11:51:50;99185.25;;;17.23;100.00
55916;BME280;41826;53.246;-6.670;2023-09-19T11:54:16;99180.53;;;17.25;100.00
55916;BME280;41826;53.246;-6.670;2023-09-19T11:56:53;99177.44;;;17.28;100.00
55916;BME280;41826;53.246;-6.670;2023-09-19T11:59:26;99179.50;;;17.26;100.00
55916;BME280;41826;53.246;-6.670;2023-09-19T12:01:54;99177.72;;;17.39;100.00
55916;BME280;41826;53.246;-6.670;2023-09-19T12:06:58;99176.25;;;17.43;100.00
55916;BME280;41826;53.246;-6.670;2023-09-19T12:09:25;99161.78;;;17.39;100.00
55916;BME280;41826;53.246;-6.670;2023-09-19T12:11:50;99165.13;;;17.34;100.00
55916;BME280;41826;53.246;-6.670;2023-09-19T12:14:24;99164.41;;;17.27;100.00
55916;BME280;41826;53.246;-6.670;2023-09-19T12:16:54;99179.75;;;17.25;100.00
55916;BME280;41826;53.246;-6.670;2023-09-19T12:19:21;99158.53;;;17.25;100.00
55916;BME280;41826;53.246;-6.670;2023-09-19T12:22:00;99172.59;;;17.25;100.00
55916;BME280;41826;53.246;-6.670;2023-09-19T12:24:34;99175.31;;;17.19;100.00
55916;BME280;41826;53.246;-6.670;2023-09-19T12:27:05;99167.75;;;17.22;100.00
55916;BME280;41826;53.246;-6.670;2023-09-19T12:29:31;99164.84;;;17.24;100.00
55916;BME280;41826;53.246;-6.670;2023-09-19T12:31:58;99167.47;;;17.12;100.00
55916;BME280;41826;53.246;-6.670;2023-09-19T12:34:28;99173.19;;;17.09;100.00
55916;BME280;41826;53.246;-6.670;2023-09-19T12:37:16;99172.66;;;17.19;100.00
55916;BME280;41826;53.246;-6.670;2023-09-19T12:39:49;99176.38;;;17.18;100.00
55916;BME280;41826;53.246;-6.670;2023-09-19T12:42:21;99185.72;;;17.20;100.00
55916;BME280;41826;53.246;-6.670;2023-09-19T12:44:51;99180.88;;;17.17;100.00
55916;BME280;41826;53.246;-6.670;2023-09-19T12:47:27;99186.66;;;17.26;100.00
55916;BME280;41826;53.246;-6.670;2023-09-19T12:50:14;99190.09;;;17.26;100.00
55916;BME280;41826;53.246;-6.670;2023-09-19T12:52:46;99185.25;;;17.23;100.00
55916;BME280;41826;53.246;-6.670;2023-09-19T12:55:40;99191.16;;;17.25;100.00
55916;BME280;41826;53.246;-6.670;2023-09-19T12:58:13;99195.69;;;17.37;100.00
55916;BME280;41826;53.246;-6.670;2023-09-19T13:00:43;99194.28;;;17.34;100.00
55916;BME280;41826;53.246;-6.670;2023-09-19T13:03:26;99196.59;;;17.30;100.00
55916;BME280;41826;53.246;-6.670;2023-09-19T13:08:36;99207.13;;;17.37;100.00
55916;BME280;41826;53.246;-6.670;2023-09-19T13:13:47;99203.50;;;17.31;100.00
55916;BME280;41826;53.246;-6.670;2023-09-19T13:16:15;99206.25;;;17.25;100.00
55916;BME280;41826;53.246;-6.670;2023-09-19T13:18:54;99209.28;;;17.28;100.00
55916;BME280;41826;53.246;-6.670;2023-09-19T13:21:34;99200.38;;;17.23;100.00
55916;BME280;41826;53.246;-6.670;2023-09-19T13:24:22;99198.44;;;17.30;100.00
55916;BME280;41826;53.246;-6.670;2023-09-19T13:26:51;99197.53;;;17.36;100.00
55916;BME280;41826;53.246;-6.670;2023-09-19T13:29:16;99197.13;;;17.51;100.00
55916;BME280;41826;53.246;-6.670;2023-09-19T13:31:50;99194.03;;;17.54;100.00
55916;BME280;41826;53.246;-6.670;2023-09-19T13:34:16;99188.38;;;17.62;100.00
55916;BME280;41826;53.246;-6.670;2023-09-19T13:36:43;99195.41;;;17.57;100.00
55916;BME280;41826;53.246;-6.670;2023-09-19T13:39:09;99197.41;;;17.61;100.00
55916;BME280;41826;53.246;-6.670;2023-09-19T13:41:35;99227.31;;;17.68;100.00
55916;BME280;41826;53.246;-6.670;2023-09-19T13:44:02;99235.28;;;17.68;100.00
55916;BME280;41826;53.246;-6.670;2023-09-19T13:46:28;99248.69;;;17.73;100.00
55916;BME280;41826;53.246;-6.670;2023-09-19T13:48:53;99245.97;;;17.80;100.00
55916;BME280;41826;53.246;-6.670;2023-09-19T13:51:25;99245.53;;;17.95;100.00
55916;BME280;41826;53.246;-6.670;2023-09-19T13:53:51;99251.28;;;17.92;100.00
55916;BME280;41826;53.246;-6.670;2023-09-19T13:56:16;99255.09;;;17.84;100.00
55916;BME280;41826;53.246;-6.670;2023-09-19T13:58:42;99256.06;;;17.71;100.00
55916;BME280;41826;53.246;-6.670;2023-09-19T14:01:08;99237.59;;;17.76;100.00
55916;BME280;41826;53.246;-6.670;2023-09-19T14:03:38;99241.00;;;17.84;100.00
55916;BME280;41826;53.246;-6.670;2023-09-19T14:06:04;99233.16;;;17.89;100.00